Time;durP1;ratioP1;P1;durP2;ratioP2;P2;SDS_P1;SDS_P2;PMS_P1;PMS_P2;Temp;Humidity;BMP_temperature;BMP_pressure;BME280_temperature;BME280_humidity;BME280_pressure;Samples;Min_cycle;Max_cycle;Signal;HPM_P1;HPM_P2
2021/06/29 00:01:11;;;;;;;18.57;10.10;;;;;;;;;;5033523;28;20022;-70
2021/06/29 00:03:36;;;;;;;18.90;11.40;;;;;;;;;;5032481;28;20068;-70
2021/06/29 00:06:02;;;;;;;23.20;10.63;;;;;;;;;;5033203;28;20064;-70
2021/06/29 00:08:27;;;;;;;18.00;10.43;;;;;;;;;;5033642;28;20040;-70
2021/06/29 00:10:53;;;;;;;21.33;10.63;;;;;;;;;;5033415;28;20032;-70
2021/06/29 00:13:21;;;;;;;17.00;9.83;;;;;;;;;;5032899;28;20034;-70
2021/06/29 00:15:47;;;;;;;19.40;10.77;;;;;;;;;;5032948;28;20025;-70
2021/06/29 00:18:12;;;;;;;18.23;10.10;;;;;;;;;;5032713;28;20331;-70
2021/06/29 00:20:38;;;;;;;18.90;10.03;;;;;;;;;;5032671;28;20658;-70
2021/06/29 00:23:03;;;;;;;17.37;10.43;;;;;;;;;;5032375;28;20037;-71
2021/06/29 00:25:29;;;;;;;16.60;9.80;;;;;;;;;;5032663;28;20468;-71
2021/06/29 00:27:54;;;;;;;19.63;10.23;;;;;;;;;;5032752;28;20473;-71
2021/06/29 00:30:20;;;;;;;22.40;10.80;;;;;;;;;;5032768;28;20052;-71
2021/06/29 00:32:45;;;;;;;20.43;11.47;;;;;;;;;;5032264;28;20404;-71
2021/06/29 00:35:11;;;;;;;19.43;10.73;;;;;;;;;;5033260;28;20022;-71
2021/06/29 00:37:36;;;;;;;20.90;11.10;;;;;;;;;;5032428;28;20027;-71
2021/06/29 00:40:03;;;;;;;20.90;10.30;;;;;;;;;;5032749;28;20088;-71
2021/06/29 00:42:28;;;;;;;16.50;10.10;;;;;;;;;;5031974;28;20032;-71
2021/06/29 00:44:54;;;;;;;19.00;10.90;;;;;;;;;;5032886;28;20026;-71
2021/06/29 00:47:19;;;;;;;18.27;10.83;;;;;;;;;;5032358;28;20383;-71
2021/06/29 00:49:45;;;;;;;20.33;10.50;;;;;;;;;;5032292;28;20086;-70
2021/06/29 00:52:11;;;;;;;19.13;10.57;;;;;;;;;;5032011;28;20132;-71
2021/06/29 00:54:36;;;;;;;17.37;10.93;;;;;;;;;;5032159;28;20370;-70
2021/06/29 00:57:02;;;;;;;20.73;11.40;;;;;;;;;;5032772;28;20025;-70
2021/06/29 00:59:27;;;;;;;21.20;11.40;;;;;;;;;;5032181;28;20036;-70
2021/06/29 01:01:52;;;;;;;18.27;10.97;;;;;;;;;;5029770;28;20030;-70
2021/06/29 01:04:18;;;;;;;17.53;11.37;;;;;;;;;;5032486;28;20025;-70
2021/06/29 01:06:46;;;;;;;18.40;11.37;;;;;;;;;;5033259;28;20488;-70
2021/06/29 01:09:11;;;;;;;16.93;10.57;;;;;;;;;;5032770;28;20088;-71
2021/06/29 01:11:37;;;;;;;19.57;11.07;;;;;;;;;;5032832;28;20038;-70
2021/06/29 01:14:10;;;;;;;19.73;11.13;;;;;;;;;;5032478;28;20021;-71
2021/06/29 01:16:35;;;;;;;19.67;11.90;;;;;;;;;;5030451;28;20128;-70
2021/06/29 01:19:00;;;;;;;21.20;12.03;;;;;;;;;;5028396;28;20125;-70
2021/06/29 01:21:26;;;;;;;22.20;11.93;;;;;;;;;;5027330;28;20025;-71
2021/06/29 01:23:54;;;;;;;21.23;11.13;;;;;;;;;;5032523;28;20030;-71
2021/06/29 01:26:29;;;;;;;19.00;11.10;;;;;;;;;;5033305;28;20105;-70
2021/06/29 01:29:07;;;;;;;18.90;10.77;;;;;;;;;;5032014;28;20022;-71
2021/06/29 01:31:37;;;;;;;24.80;10.20;;;;;;;;;;5032982;28;20034;-70
2021/06/29 01:34:02;;;;;;;18.33;9.90;;;;;;;;;;5032568;28;20045;-70
2021/06/29 01:36:34;;;;;;;19.47;10.27;;;;;;;;;;5036555;28;20053;-70
2021/06/29 01:39:00;;;;;;;16.98;9.82;;;;;;;;;;5034491;28;20029;-70
2021/06/29 01:41:26;;;;;;;17.70;9.30;;;;;;;;;;5036245;28;20101;-71
2021/06/29 01:44:02;;;;;;;17.77;10.23;;;;;;;;;;5036229;28;20465;-70
2021/06/29 01:46:31;;;;;;;14.63;8.43;;;;;;;;;;5036301;28;20495;-70
2021/06/29 01:48:56;;;;;;;16.60;9.30;;;;;;;;;;5036049;28;20025;-70
2021/06/29 01:51:22;;;;;;;15.00;8.67;;;;;;;;;;5036201;28;20025;-71
2021/06/29 01:53:48;;;;;;;13.60;8.17;;;;;;;;;;5035356;28;20024;-70
2021/06/29 01:56:16;;;;;;;15.07;8.40;;;;;;;;;;5035395;28;20021;-70
2021/06/29 01:58:43;;;;;;;17.87;9.00;;;;;;;;;;5035418;28;20026;-71
2021/06/29 02:01:08;;;;;;;15.83;8.27;;;;;;;;;;5036565;28;20151;-70
2021/06/29 02:03:34;;;;;;;14.20;8.70;;;;;;;;;;5032978;28;20049;-70
2021/06/29 02:05:59;;;;;;;13.63;8.50;;;;;;;;;;5031047;28;20531;-70
2021/06/29 02:08:24;;;;;;;15.23;8.07;;;;;;;;;;5035855;28;20104;-70
2021/06/29 02:10:50;;;;;;;15.47;8.27;;;;;;;;;;5035792;28;20369;-70
2021/06/29 02:13:15;;;;;;;23.20;9.07;;;;;;;;;;5035678;28;20366;-70
2021/06/29 02:15:40;;;;;;;14.77;8.67;;;;;;;;;;5035784;28;20037;-70
2021/06/29 02:18:06;;;;;;;14.53;8.13;;;;;;;;;;5035682;28;20026;-70
2021/06/29 02:20:31;;;;;;;16.20;8.83;;;;;;;;;;5034779;28;20527;-70
2021/06/29 02:22:57;;;;;;;17.50;8.57;;;;;;;;;;5034131;28;20025;-70
2021/06/29 02:25:22;;;;;;;14.73;9.03;;;;;;;;;;5034123;28;20033;-71
2021/06/29 02:27:48;;;;;;;19.37;8.87;;;;;;;;;;5034323;28;20030;-71
2021/06/29 02:30:13;;;;;;;15.33;8.63;;;;;;;;;;5033910;28;20079;-71
2021/06/29 02:32:39;;;;;;;18.47;9.23;;;;;;;;;;5034072;28;20041;-70
2021/06/29 02:35:05;;;;;;;15.83;9.37;;;;;;;;;;5035181;28;20021;-70
2021/06/29 02:37:30;;;;;;;17.30;9.40;;;;;;;;;;5033679;28;20075;-70
2021/06/29 02:39:55;;;;;;;18.10;9.37;;;;;;;;;;5035102;28;20096;-74
2021/06/29 02:42:21;;;;;;;16.13;8.57;;;;;;;;;;5034347;28;20030;-74
2021/06/29 02:44:47;;;;;;;16.83;9.67;;;;;;;;;;5034706;28;20119;-74
2021/06/29 02:47:12;;;;;;;16.67;9.47;;;;;;;;;;5034228;28;20025;-74
2021/06/29 02:49:38;;;;;;;18.27;9.17;;;;;;;;;;5034893;28;20025;-74
2021/06/29 02:52:03;;;;;;;18.67;9.53;;;;;;;;;;5033836;28;20085;-74
2021/06/29 02:54:29;;;;;;;15.60;9.43;;;;;;;;;;5033259;28;20108;-74
2021/06/29 02:56:54;;;;;;;16.93;9.37;;;;;;;;;;5034540;28;20018;-74
2021/06/29 02:59:19;;;;;;;22.60;9.67;;;;;;;;;;5034718;28;20035;-73
2021/06/29 03:01:45;;;;;;;17.13;9.30;;;;;;;;;;5036672;28;20025;-73
2021/06/29 03:04:10;;;;;;;19.13;9.47;;;;;;;;;;5033788;28;20033;-73
2021/06/29 03:06:36;;;;;;;15.30;9.70;;;;;;;;;;5033543;28;20055;-74
2021/06/29 03:09:02;;;;;;;15.70;9.17;;;;;;;;;;5033686;28;20124;-73
2021/06/29 03:11:28;;;;;;;15.53;9.80;;;;;;;;;;5034301;28;20505;-73
2021/06/29 03:13:53;;;;;;;15.07;9.30;;;;;;;;;;5032947;28;20049;-73
2021/06/29 03:16:18;;;;;;;17.07;9.30;;;;;;;;;;5034208;28;20028;-73
2021/06/29 03:18:50;;;;;;;12.85;7.82;;;;;;;;;;4601671;28;18629755;-73
2021/06/29 03:21:15;;;;;;;16.80;9.57;;;;;;;;;;5033732;28;20737;-73
2021/06/29 03:23:41;;;;;;;17.13;9.70;;;;;;;;;;5034763;28;20465;-73
2021/06/29 03:26:06;;;;;;;16.03;9.57;;;;;;;;;;5034941;28;20026;-73
2021/06/29 03:28:32;;;;;;;18.83;9.27;;;;;;;;;;5034426;28;20025;-73
2021/06/29 03:30:57;;;;;;;15.10;9.73;;;;;;;;;;5033487;28;20135;-73
2021/06/29 03:33:22;;;;;;;16.67;9.33;;;;;;;;;;5034255;28;20387;-73
2021/06/29 03:35:48;;;;;;;20.60;9.20;;;;;;;;;;5034604;28;20446;-73
2021/06/29 03:38:13;;;;;;;16.53;9.53;;;;;;;;;;5033792;28;20033;-73
2021/06/29 03:40:39;;;;;;;17.90;9.73;;;;;;;;;;5035075;28;20021;-73
2021/06/29 03:43:04;;;;;;;15.90;9.77;;;;;;;;;;5034445;28;20025;-73
2021/06/29 03:45:30;;;;;;;14.70;9.53;;;;;;;;;;5034876;28;20049;-73
2021/06/29 03:47:55;;;;;;;17.07;9.67;;;;;;;;;;5034834;28;20550;-73
2021/06/29 03:50:20;;;;;;;15.13;9.17;;;;;;;;;;5034456;28;20056;-73
2021/06/29 03:52:46;;;;;;;15.77;9.93;;;;;;;;;;5033613;28;20067;-73
2021/06/29 03:55:11;;;;;;;18.37;9.57;;;;;;;;;;5034103;28;20470;-73
2021/06/29 03:57:36;;;;;;;19.93;10.27;;;;;;;;;;5033533;28;20031;-73
2021/06/29 04:00:06;;;;;;;16.87;10.27;;;;;;;;;;5034007;28;20018;-73
2021/06/29 04:02:31;;;;;;;20.87;10.27;;;;;;;;;;5041042;28;20029;-73
2021/06/29 04:04:57;;;;;;;20.23;10.77;;;;;;;;;;5034107;28;20160;-73
2021/06/29 04:07:22;;;;;;;25.00;11.27;;;;;;;;;;5033799;28;20025;-73
2021/06/29 04:09:47;;;;;;;19.47;10.47;;;;;;;;;;5033910;28;20032;-73
2021/06/29 04:12:14;;;;;;;21.17;11.00;;;;;;;;;;5033234;28;20031;-73
2021/06/29 04:14:39;;;;;;;26.37;12.07;;;;;;;;;;5033816;28;20048;-74
2021/06/29 04:17:05;;;;;;;23.30;13.30;;;;;;;;;;5034041;28;20052;-74
2021/06/29 04:19:30;;;;;;;25.40;12.43;;;;;;;;;;5033529;28;20521;-74
2021/06/29 04:21:55;;;;;;;27.80;13.30;;;;;;;;;;5033776;28;20486;-74
2021/06/29 04:24:21;;;;;;;26.90;13.10;;;;;;;;;;5033855;28;20083;-73
2021/06/29 04:26:46;;;;;;;27.90;11.63;;;;;;;;;;5033999;28;20108;-73
2021/06/29 04:29:11;;;;;;;23.77;12.23;;;;;;;;;;5033148;28;20029;-74
2021/06/29 04:31:37;;;;;;;18.17;10.40;;;;;;;;;;5032868;28;20025;-73
2021/06/29 04:34:02;;;;;;;21.73;10.27;;;;;;;;;;5032988;28;20017;-73
2021/06/29 04:36:28;;;;;;;16.10;8.83;;;;;;;;;;5034083;28;20033;-73
2021/06/29 04:38:54;;;;;;;19.20;9.43;;;;;;;;;;5032995;28;20028;-73
2021/06/29 04:41:19;;;;;;;17.97;8.90;;;;;;;;;;5033213;28;20026;-73
2021/06/29 04:43:45;;;;;;;21.17;8.77;;;;;;;;;;5032585;28;20033;-73
2021/06/29 04:46:11;;;;;;;13.93;8.03;;;;;;;;;;5033957;28;20112;-73
2021/06/29 04:48:39;;;;;;;16.13;7.60;;;;;;;;;;5033195;28;20470;-73
2021/06/29 04:51:05;;;;;;;15.03;8.57;;;;;;;;;;5032735;28;20461;-73
2021/06/29 04:53:30;;;;;;;13.20;7.53;;;;;;;;;;5032735;28;20025;-73
2021/06/29 04:55:56;;;;;;;12.87;7.23;;;;;;;;;;5032970;28;20057;-73
2021/06/29 04:58:21;;;;;;;14.17;8.27;;;;;;;;;;5033047;28;20029;-73
2021/06/29 05:00:49;;;;;;;15.53;8.10;;;;;;;;;;5033028;28;20033;-73
2021/06/29 05:03:14;;;;;;;14.80;7.47;;;;;;;;;;5032694;28;20029;-73
2021/06/29 05:05:40;;;;;;;15.97;7.63;;;;;;;;;;5032799;28;20031;-73
2021/06/29 05:08:05;;;;;;;15.23;8.13;;;;;;;;;;5032528;28;20039;-73
2021/06/29 05:10:30;;;;;;;15.17;7.80;;;;;;;;;;5034731;28;20033;-73
2021/06/29 05:12:56;;;;;;;14.37;7.60;;;;;;;;;;5036582;28;20061;-72
2021/06/29 05:15:21;;;;;;;14.37;7.53;;;;;;;;;;5037749;28;20021;-73
2021/06/29 05:17:46;;;;;;;13.83;7.43;;;;;;;;;;5036115;28;20458;-73
2021/06/29 05:20:12;;;;;;;21.63;7.57;;;;;;;;;;5036540;28;20111;-73
2021/06/29 05:22:38;;;;;;;11.73;6.77;;;;;;;;;;5031373;28;20334;-73
2021/06/29 05:25:08;;;;;;;13.90;7.63;;;;;;;;;;5036451;28;20026;-73
2021/06/29 05:27:35;;;;;;;13.30;7.10;;;;;;;;;;5036732;28;20370;-73
2021/06/29 05:30:01;;;;;;;18.47;7.93;;;;;;;;;;5036054;28;20040;-73
2021/06/29 05:32:26;;;;;;;14.93;7.53;;;;;;;;;;5036129;28;20037;-73
2021/06/29 05:34:51;;;;;;;13.63;7.53;;;;;;;;;;5036615;28;20026;-73
2021/06/29 05:37:20;;;;;;;14.40;7.50;;;;;;;;;;5036796;28;20041;-73
2021/06/29 05:39:45;;;;;;;14.93;7.50;;;;;;;;;;5037230;28;20026;-73
2021/06/29 05:42:11;;;;;;;12.20;7.00;;;;;;;;;;5035983;28;20032;-73
2021/06/29 05:44:36;;;;;;;10.83;6.60;;;;;;;;;;5036413;28;20030;-73
2021/06/29 05:47:05;;;;;;;11.00;6.70;;;;;;;;;;5036370;28;20025;-73
2021/06/29 05:49:31;;;;;;;11.87;6.63;;;;;;;;;;5037358;28;20091;-73
2021/06/29 05:51:56;;;;;;;13.87;7.40;;;;;;;;;;5036449;28;20034;-73
2021/06/29 05:54:21;;;;;;;16.17;8.80;;;;;;;;;;5034227;28;20041;-73
2021/06/29 05:56:46;;;;;;;16.57;8.47;;;;;;;;;;5036216;28;20025;-73
2021/06/29 05:59:12;;;;;;;14.90;8.40;;;;;;;;;;5035680;28;20116;-73
2021/06/29 06:01:38;;;;;;;12.80;7.63;;;;;;;;;;5044518;28;20032;-73
2021/06/29 06:04:03;;;;;;;12.20;8.03;;;;;;;;;;5037895;28;20021;-73
2021/06/29 06:06:28;;;;;;;11.52;7.35;;;;;;;;;;5035859;28;20374;-73
2021/06/29 06:08:53;;;;;;;14.27;7.47;;;;;;;;;;5036002;28;20449;-73
2021/06/29 06:11:19;;;;;;;13.18;7.18;;;;;;;;;;5035497;28;20034;-73
2021/06/29 06:13:44;;;;;;;12.77;7.55;;;;;;;;;;5035642;28;20034;-73
2021/06/29 06:16:10;;;;;;;12.00;7.40;;;;;;;;;;5034904;28;20018;-73
2021/06/29 06:18:36;;;;;;;11.02;6.82;;;;;;;;;;5035101;28;20083;-73
2021/06/29 06:21:01;;;;;;;10.98;6.63;;;;;;;;;;5034767;28;20072;-73
2021/06/29 06:23:27;;;;;;;10.30;6.90;;;;;;;;;;5035612;28;20033;-73
2021/06/29 06:25:52;;;;;;;12.75;6.85;;;;;;;;;;5035892;28;20029;-73
2021/06/29 06:28:17;;;;;;;10.30;6.68;;;;;;;;;;5035457;28;20095;-73
2021/06/29 06:30:43;;;;;;;10.35;6.30;;;;;;;;;;5035954;28;20584;-73
2021/06/29 06:33:08;;;;;;;9.95;6.38;;;;;;;;;;5035466;28;20446;-73
2021/06/29 06:35:34;;;;;;;9.23;6.47;;;;;;;;;;5035631;28;20018;-73
2021/06/29 06:37:59;;;;;;;11.05;6.93;;;;;;;;;;5034352;28;20033;-73
2021/06/29 06:40:24;;;;;;;11.38;6.82;;;;;;;;;;5031539;28;20029;-73
2021/06/29 06:42:50;;;;;;;13.02;6.78;;;;;;;;;;5034089;28;20037;-73
2021/06/29 06:45:15;;;;;;;11.75;6.38;;;;;;;;;;5034970;28;20358;-73
2021/06/29 06:47:41;;;;;;;11.90;7.28;;;;;;;;;;5035089;28;20029;-73
2021/06/29 06:50:07;;;;;;;11.40;6.75;;;;;;;;;;5035336;28;20021;-73
2021/06/29 06:52:36;;;;;;;12.87;6.80;;;;;;;;;;5034326;28;20547;-73
2021/06/29 06:55:02;;;;;;;11.98;7.78;;;;;;;;;;5035134;28;20502;-73
2021/06/29 06:57:28;;;;;;;13.67;7.03;;;;;;;;;;5034594;28;20032;-73
2021/06/29 06:59:53;;;;;;;12.23;7.28;;;;;;;;;;5035050;28;20096;-73
2021/06/29 07:02:18;;;;;;;11.07;7.55;;;;;;;;;;5039409;28;20033;-73
2021/06/29 07:04:44;;;;;;;14.13;7.55;;;;;;;;;;5034083;28;20033;-73
2021/06/29 07:07:09;;;;;;;13.77;7.20;;;;;;;;;;5034639;28;20030;-74
2021/06/29 07:09:34;;;;;;;13.07;6.87;;;;;;;;;;5034786;28;20025;-73
2021/06/29 07:12:01;;;;;;;12.13;7.30;;;;;;;;;;5034108;28;20033;-73
2021/06/29 07:14:26;;;;;;;11.60;6.80;;;;;;;;;;5033870;28;20104;-73
2021/06/29 07:16:52;;;;;;;11.57;7.10;;;;;;;;;;5034498;28;20056;-73
2021/06/29 07:19:17;;;;;;;13.00;6.65;;;;;;;;;;5034253;28;20049;-73
2021/06/29 07:21:43;;;;;;;10.50;6.68;;;;;;;;;;5034659;28;20052;-73
2021/06/29 07:24:08;;;;;;;14.75;6.80;;;;;;;;;;5033974;28;20029;-73
2021/06/29 07:26:33;;;;;;;14.27;7.32;;;;;;;;;;5035098;28;20029;-73
2021/06/29 07:28:59;;;;;;;11.85;7.18;;;;;;;;;;5034199;28;20037;-73
2021/06/29 07:31:24;;;;;;;13.75;7.70;;;;;;;;;;5034190;28;20022;-73
2021/06/29 07:33:50;;;;;;;13.95;7.72;;;;;;;;;;5033290;28;20033;-73
2021/06/29 07:36:16;;;;;;;12.20;7.50;;;;;;;;;;5034375;28;20045;-73
2021/06/29 07:38:45;;;;;;;14.35;8.13;;;;;;;;;;5033738;28;20026;-73
2021/06/29 07:41:11;;;;;;;13.77;7.72;;;;;;;;;;5025768;28;20041;-74
2021/06/29 07:43:37;;;;;;;15.23;8.13;;;;;;;;;;5033551;28;20032;-73
2021/06/29 07:46:02;;;;;;;12.07;7.80;;;;;;;;;;5032366;28;20033;-73
2021/06/29 07:48:28;;;;;;;15.82;7.68;;;;;;;;;;5033266;28;20029;-73
2021/06/29 07:50:54;;;;;;;13.65;8.13;;;;;;;;;;5034194;28;20030;-73
2021/06/29 07:53:19;;;;;;;13.38;7.90;;;;;;;;;;5033591;28;20037;-73
2021/06/29 07:55:45;;;;;;;12.02;7.75;;;;;;;;;;5033887;28;20079;-73
2021/06/29 07:58:10;;;;;;;13.05;7.13;;;;;;;;;;5033446;28;20029;-73
2021/06/29 08:00:36;;;;;;;12.98;6.57;;;;;;;;;;5033350;28;20022;-73
2021/06/29 08:03:02;;;;;;;14.18;7.03;;;;;;;;;;5042067;28;20060;-73
2021/06/29 08:05:28;;;;;;;13.95;7.32;;;;;;;;;;5033797;28;20025;-74
2021/06/29 08:07:53;;;;;;;11.73;6.85;;;;;;;;;;5033395;28;20373;-74
2021/06/29 08:10:19;;;;;;;13.25;7.38;;;;;;;;;;5033585;28;20175;-74
2021/06/29 08:12:44;;;;;;;12.80;6.38;;;;;;;;;;5033423;28;20029;-73
2021/06/29 08:15:10;;;;;;;11.70;6.60;;;;;;;;;;5033019;28;20025;-73
2021/06/29 08:17:35;;;;;;;10.30;6.57;;;;;;;;;;5033032;28;20040;-73
2021/06/29 08:20:01;;;;;;;14.80;6.07;;;;;;;;;;5033548;28;20045;-73
2021/06/29 08:22:26;;;;;;;10.18;6.63;;;;;;;;;;5033204;28;20040;-73
2021/06/29 08:24:51;;;;;;;9.75;6.43;;;;;;;;;;5033471;28;20100;-73
2021/06/29 08:27:17;;;;;;;11.57;6.50;;;;;;;;;;5033006;28;20108;-73
2021/06/29 08:29:43;;;;;;;8.48;5.78;;;;;;;;;;5033268;28;20348;-73
2021/06/29 08:32:09;;;;;;;10.38;5.80;;;;;;;;;;5032794;28;20252;-73
2021/06/29 08:34:34;;;;;;;7.63;5.55;;;;;;;;;;5033201;28;20071;-73
2021/06/29 08:36:59;;;;;;;12.27;5.72;;;;;;;;;;5033069;28;20032;-73
2021/06/29 08:39:25;;;;;;;11.20;6.00;;;;;;;;;;5033243;28;20029;-73
2021/06/29 08:41:50;;;;;;;8.43;5.50;;;;;;;;;;5033189;28;20033;-73
2021/06/29 08:44:16;;;;;;;11.55;5.88;;;;;;;;;;5032829;28;20029;-74
2021/06/29 08:46:41;;;;;;;8.75;5.72;;;;;;;;;;5029863;28;20025;-74
2021/06/29 08:49:07;;;;;;;11.70;5.55;;;;;;;;;;5033341;28;20036;-74
2021/06/29 08:51:34;;;;;;;8.85;5.47;;;;;;;;;;5032582;28;20021;-73
2021/06/29 08:54:00;;;;;;;10.68;5.60;;;;;;;;;;5032473;28;20167;-74
2021/06/29 08:56:25;;;;;;;8.95;5.18;;;;;;;;;;5033216;28;20079;-73
2021/06/29 08:58:51;;;;;;;8.85;5.13;;;;;;;;;;5032598;28;20108;-73
2021/06/29 09:01:16;;;;;;;8.52;4.80;;;;;;;;;;5033715;28;20018;-74
2021/06/29 09:03:42;;;;;;;7.35;4.88;;;;;;;;;;5034044;28;20069;-73
2021/06/29 09:06:07;;;;;;;8.98;5.10;;;;;;;;;;5033137;28;20032;-74
2021/06/29 09:08:42;;;;;;;9.68;5.18;;;;;;;;;;5032587;28;20037;-74
2021/06/29 09:11:19;;;;;;;10.30;4.82;;;;;;;;;;5033263;28;20536;-74
2021/06/29 09:14:09;;;;;;;8.38;4.82;;;;;;;;;;5032720;28;20037;-73
2021/06/29 09:16:34;;;;;;;6.30;4.28;;;;;;;;;;5032790;28;20030;-74
2021/06/29 09:19:00;;;;;;;10.60;4.80;;;;;;;;;;5031613;28;20046;-74
2021/06/29 09:21:25;;;;;;;13.18;5.15;;;;;;;;;;5032770;28;20021;-74
2021/06/29 09:23:51;;;;;;;6.60;4.72;;;;;;;;;;5032387;28;20099;-74
2021/06/29 09:26:17;;;;;;;7.55;4.68;;;;;;;;;;5032303;28;20029;-74
2021/06/29 09:29:03;;;;;;;7.03;4.80;;;;;;;;;;5031825;28;20026;-74
2021/06/29 09:31:31;;;;;;;5.70;3.92;;;;;;;;;;5024653;28;20045;-74
2021/06/29 09:34:00;;;;;;;5.80;3.92;;;;;;;;;;5032226;28;20037;-74
2021/06/29 09:36:26;;;;;;;6.88;4.40;;;;;;;;;;5031978;28;20022;-74
2021/06/29 09:38:55;;;;;;;6.90;4.57;;;;;;;;;;5031712;28;20045;-74
2021/06/29 09:41:22;;;;;;;7.55;4.93;;;;;;;;;;5031975;28;20492;-74
2021/06/29 09:43:49;;;;;;;10.65;5.05;;;;;;;;;;5032666;28;20112;-74
2021/06/29 09:46:15;;;;;;;9.00;5.15;;;;;;;;;;5032372;28;20087;-74
2021/06/29 09:48:44;;;;;;;9.88;5.45;;;;;;;;;;5031852;28;20033;-73
2021/06/29 09:51:29;;;;;;;8.63;5.28;;;;;;;;;;5032678;28;20049;-73
2021/06/29 09:53:58;;;;;;;9.02;5.25;;;;;;;;;;5031623;28;20018;-74
2021/06/29 09:56:28;;;;;;;8.77;5.68;;;;;;;;;;5033980;28;20025;-74
2021/06/29 09:58:54;;;;;;;9.50;5.68;;;;;;;;;;5035485;28;20029;-74
2021/06/29 10:01:22;;;;;;;8.88;5.68;;;;;;;;;;5039400;28;20017;-74
2021/06/29 10:03:51;;;;;;;8.23;5.68;;;;;;;;;;5035773;28;20040;-74
2021/06/29 10:06:17;;;;;;;9.02;6.15;;;;;;;;;;5035362;28;20029;-74
2021/06/29 10:08:43;;;;;;;8.57;5.80;;;;;;;;;;5035279;28;20029;-74
2021/06/29 10:11:10;;;;;;;9.18;5.50;;;;;;;;;;5035158;28;20083;-74
2021/06/29 10:13:37;;;;;;;9.52;6.35;;;;;;;;;;5035408;28;20022;-74
2021/06/29 10:16:06;;;;;;;10.98;6.10;;;;;;;;;;5031424;28;20024;-74
2021/06/29 10:18:32;;;;;;;12.05;6.32;;;;;;;;;;5035684;28;20080;-74
2021/06/29 10:21:01;;;;;;;8.75;5.90;;;;;;;;;;5035328;28;20154;-74
2021/06/29 10:23:27;;;;;;;10.43;6.47;;;;;;;;;;5035005;28;20025;-74
2021/06/29 10:25:52;;;;;;;12.10;6.95;;;;;;;;;;5035354;28;20128;-73
2021/06/29 10:28:18;;;;;;;10.77;6.82;;;;;;;;;;5035910;28;20036;-74
2021/06/29 10:30:45;;;;;;;13.40;6.45;;;;;;;;;;5034898;28;20033;-74
2021/06/29 10:33:11;;;;;;;11.32;7.00;;;;;;;;;;5035530;28;20446;-73
2021/06/29 10:35:36;;;;;;;12.57;6.70;;;;;;;;;;5035291;28;20377;-73
2021/06/29 10:38:02;;;;;;;10.65;7.13;;;;;;;;;;5035225;28;20029;-74
2021/06/29 10:40:28;;;;;;;11.25;6.53;;;;;;;;;;5033133;28;20033;-73
2021/06/29 10:42:57;;;;;;;10.98;6.97;;;;;;;;;;5030365;28;20047;-73
2021/06/29 10:45:23;;;;;;;14.60;6.82;;;;;;;;;;5033616;28;20058;-73
2021/06/29 10:47:49;;;;;;;9.48;6.53;;;;;;;;;;5034038;28;20067;-73
2021/06/29 10:50:14;;;;;;;11.27;6.97;;;;;;;;;;5033142;28;20036;-73
2021/06/29 10:52:42;;;;;;;10.13;6.57;;;;;;;;;;5033850;28;20551;-73
2021/06/29 10:55:34;;;;;;;9.93;7.10;;;;;;;;;;5034748;28;20049;-73
2021/06/29 11:00:30;;;;;;;15.18;7.88;;;;;;;;;;5034667;28;20079;-73
2021/06/29 11:03:00;;;;;;;12.18;7.72;;;;;;;;;;5037260;28;20026;-73
2021/06/29 11:05:27;;;;;;;19.65;7.82;;;;;;;;;;5033354;28;20017;-73
2021/06/29 11:08:04;;;;;;;25.23;8.77;;;;;;;;;;5032325;28;20025;-73
2021/06/29 11:10:31;;;;;;;15.32;7.45;;;;;;;;;;5034866;28;20424;-73
2021/06/29 11:13:00;;;;;;;14.93;7.28;;;;;;;;;;5034326;28;20030;-74
2021/06/29 11:15:59;;;;;;;14.48;6.78;;;;;;;;;;5034222;28;20079;-74
2021/06/29 11:18:54;;;;;;;10.30;7.45;;;;;;;;;;5006213;28;20125;-73
2021/06/29 11:21:40;;;;;;;10.65;7.53;;;;;;;;;;5027433;28;20052;-74
2021/06/29 11:24:24;;;;;;;12.80;8.50;;;;;;;;;;5033846;28;20478;-74
2021/06/29 11:26:49;;;;;;;12.75;9.57;;;;;;;;;;5031764;28;20143;-74
2021/06/29 11:29:15;;;;;;;13.05;9.65;;;;;;;;;;5033220;28;20072;-73
2021/06/29 11:31:42;;;;;;;13.35;9.10;;;;;;;;;;5032404;28;20501;-73
2021/06/29 11:34:12;;;;;;;13.10;8.88;;;;;;;;;;5032960;28;20497;-73
2021/06/29 11:36:39;;;;;;;14.30;9.90;;;;;;;;;;5031022;28;20025;-73
2021/06/29 11:39:34;;;;;;;15.30;9.30;;;;;;;;;;5032589;28;20018;-73
2021/06/29 11:42:09;;;;;;;13.27;8.70;;;;;;;;;;5019616;28;20563;-73
2021/06/29 11:44:42;;;;;;;13.07;8.88;;;;;;;;;;5033076;28;20051;-73
2021/06/29 11:47:10;;;;;;;12.60;8.20;;;;;;;;;;5032573;28;20056;-72
2021/06/29 11:49:58;;;;;;;12.27;8.80;;;;;;;;;;5033276;28;20051;-74
2021/06/29 11:52:26;;;;;;;13.07;8.48;;;;;;;;;;5032395;28;20276;-73
2021/06/29 11:54:53;;;;;;;14.48;8.40;;;;;;;;;;5032348;28;20021;-73
2021/06/29 11:57:27;;;;;;;11.82;8.52;;;;;;;;;;5032025;28;20766;-73
2021/06/29 12:00:12;;;;;;;10.95;8.10;;;;;;;;;;5033715;28;20513;-73
2021/06/29 12:02:38;;;;;;;11.00;8.20;;;;;;;;;;4989062;28;20084;-73
2021/06/29 12:05:07;;;;;;;13.30;7.90;;;;;;;;;;4991681;28;20423;-74
2021/06/29 12:07:37;;;;;;;13.48;8.18;;;;;;;;;;4989659;28;20069;-74
2021/06/29 12:10:07;;;;;;;11.15;7.75;;;;;;;;;;4991328;28;20092;-74
2021/06/29 12:12:33;;;;;;;10.35;6.85;;;;;;;;;;4987942;28;20041;-74
2021/06/29 12:15:06;;;;;;;12.05;7.50;;;;;;;;;;4987659;28;20026;-74
2021/06/29 12:17:32;;;;;;;9.57;6.78;;;;;;;;;;4988207;28;20395;-75
2021/06/29 12:19:59;;;;;;;13.15;6.35;;;;;;;;;;4987653;28;20035;-75
2021/06/29 12:22:25;;;;;;;7.78;5.55;;;;;;;;;;4989139;28;20030;-76
2021/06/29 12:24:51;;;;;;;13.93;5.90;;;;;;;;;;4990255;28;20105;-75
2021/06/29 12:27:17;;;;;;;7.55;5.68;;;;;;;;;;4989875;28;20122;-75
2021/06/29 12:29:42;;;;;;;6.65;5.15;;;;;;;;;;4987863;28;20045;-76
2021/06/29 12:32:23;;;;;;;9.18;5.78;;;;;;;;;;4989329;28;20022;-75
2021/06/29 12:34:49;;;;;;;8.23;5.18;;;;;;;;;;4990619;28;20088;-74
2021/06/29 12:37:14;;;;;;;8.30;5.28;;;;;;;;;;4988863;28;20034;-74
2021/06/29 12:39:40;;;;;;;9.15;5.63;;;;;;;;;;5005858;28;20029;-74
2021/06/29 12:42:12;;;;;;;8.60;6.20;;;;;;;;;;5031818;28;20024;-74
2021/06/29 12:44:37;;;;;;;8.48;5.95;;;;;;;;;;5030858;28;20013;-74
2021/06/29 12:47:03;;;;;;;10.45;6.35;;;;;;;;;;5032514;28;21771;-74
2021/06/29 12:49:29;;;;;;;12.07;6.90;;;;;;;;;;5031364;28;20049;-74
2021/06/29 12:52:07;;;;;;;9.45;6.80;;;;;;;;;;5033047;28;20029;-74
2021/06/29 12:54:32;;;;;;;11.02;7.53;;;;;;;;;;5032200;28;20036;-74
2021/06/29 12:57:00;;;;;;;10.70;7.55;;;;;;;;;;5031973;28;20017;-74
2021/06/29 12:59:27;;;;;;;12.38;7.35;;;;;;;;;;5032681;28;20021;-73
2021/06/29 13:01:55;;;;;;;12.23;7.68;;;;;;;;;;5033247;28;20480;-73
2021/06/29 13:04:24;;;;;;;11.57;8.23;;;;;;;;;;5032531;28;20030;-73
2021/06/29 13:07:00;;;;;;;13.07;8.05;;;;;;;;;;5031836;28;20032;-73
2021/06/29 13:09:30;;;;;;;13.60;8.43;;;;;;;;;;5031897;28;20485;-73
2021/06/29 13:11:57;;;;;;;11.27;8.02;;;;;;;;;;5032100;28;20017;-73
2021/06/29 13:14:23;;;;;;;12.48;8.40;;;;;;;;;;5030975;28;20014;-73
2021/06/29 13:16:58;;;;;;;13.20;8.80;;;;;;;;;;5032200;28;20116;-73
2021/06/29 13:19:23;;;;;;;12.32;8.88;;;;;;;;;;5032363;28;20046;-73
2021/06/29 13:21:53;;;;;;;15.35;9.30;;;;;;;;;;5031843;28;20095;-73
2021/06/29 13:24:18;;;;;;;15.93;9.75;;;;;;;;;;5032493;28;20026;-73
2021/06/29 13:26:54;;;;;;;17.40;10.02;;;;;;;;;;5031097;28;20033;-73
2021/06/29 13:29:32;;;;;;;16.27;10.13;;;;;;;;;;5030462;28;20124;-73
2021/06/29 13:31:57;;;;;;;17.48;11.32;;;;;;;;;;5034778;28;20044;-73
2021/06/29 13:34:24;;;;;;;15.55;10.18;;;;;;;;;;5036460;28;20025;-73
2021/06/29 13:36:50;;;;;;;12.10;7.55;;;;;;;;;;5035901;28;20032;-73
2021/06/29 13:39:41;;;;;;;12.35;6.57;;;;;;;;;;5035865;28;20017;-73
2021/06/29 13:42:16;;;;;;;11.85;6.88;;;;;;;;;;5023272;28;20034;-73
2021/06/29 13:44:52;;;;;;;13.73;7.40;;;;;;;;;;5036365;28;20098;-73
2021/06/29 13:47:17;;;;;;;10.25;6.22;;;;;;;;;;5034889;28;20022;-73
2021/06/29 13:49:54;;;;;;;10.15;5.70;;;;;;;;;;5035772;28;20041;-72
2021/06/29 13:52:20;;;;;;;9.93;5.72;;;;;;;;;;5035655;28;20382;-72
2021/06/29 13:55:02;;;;;;;9.80;5.70;;;;;;;;;;5035042;28;20025;-72
2021/06/29 13:57:27;;;;;;;9.07;5.53;;;;;;;;;;5032503;28;20124;-72
2021/06/29 13:59:53;;;;;;;10.38;5.28;;;;;;;;;;5035168;28;20038;-72
2021/06/29 14:02:28;;;;;;;7.97;4.38;;;;;;;;;;5039735;28;20033;-72
2021/06/29 14:04:53;;;;;;;7.38;4.43;;;;;;;;;;5035988;28;20040;-72
2021/06/29 14:07:19;;;;;;;5.95;3.90;;;;;;;;;;5035390;28;20434;-72
2021/06/29 14:09:45;;;;;;;6.68;3.45;;;;;;;;;;5035445;28;20516;-73
2021/06/29 14:12:21;;;;;;;5.10;2.90;;;;;;;;;;5034845;28;20052;-73
2021/06/29 14:14:46;;;;;;;4.82;2.50;;;;;;;;;;5034677;28;20036;-73
2021/06/29 14:17:12;;;;;;;4.43;2.33;;;;;;;;;;5032502;28;20021;-73
2021/06/29 14:19:37;;;;;;;4.95;2.55;;;;;;;;;;5034570;28;20029;-73
2021/06/29 14:22:11;;;;;;;4.70;2.65;;;;;;;;;;5035323;28;20030;-74
2021/06/29 14:24:36;;;;;;;5.75;2.60;;;;;;;;;;5035916;28;20032;-75
2021/06/29 14:27:01;;;;;;;4.78;2.30;;;;;;;;;;5035800;28;20034;-75
2021/06/29 14:29:27;;;;;;;5.85;2.33;;;;;;;;;;5035470;28;20048;-75
2021/06/29 14:31:52;;;;;;;4.05;2.25;;;;;;;;;;5036379;28;20026;-76
2021/06/29 14:34:17;;;;;;;4.47;2.10;;;;;;;;;;5036394;28;20419;-75